createdAt,value
2018-11-06T00:00:29.381Z,99.90
2018-11-06T00:02:59.710Z,99.90
2018-11-06T00:05:32.152Z,99.90
2018-11-06T00:08:03.307Z,99.90
2018-11-06T00:10:34.478Z,99.90
2018-11-06T00:13:06.900Z,99.90
2018-11-06T00:15:37.289Z,99.90
2018-11-06T00:18:11.707Z,99.90
2018-11-06T00:20:49.334Z,99.90
2018-11-06T00:23:19.729Z,99.90
2018-11-06T00:25:54.206Z,99.90
2018-11-06T00:28:25.376Z,99.90
2018-11-06T00:30:55.743Z,99.90
2018-11-06T00:33:26.119Z,99.90
2018-11-06T00:35:56.522Z,99.90
2018-11-06T00:38:27.605Z,99.90
2018-11-06T00:40:57.993Z,99.90
2018-11-06T00:43:29.083Z,99.90
2018-11-06T00:46:03.559Z,99.90
2018-11-06T00:48:33.944Z,99.90
2018-11-06T00:51:23.714Z,99.90
2018-11-06T00:54:01.271Z,99.90
2018-11-06T00:56:32.443Z,99.90
2018-11-06T00:59:02.894Z,99.90
2018-11-06T01:01:33.990Z,99.90
2018-11-06T01:04:05.168Z,99.90
2018-11-06T01:06:35.543Z,99.90
2018-11-06T01:09:06.205Z,99.90
2018-11-06T01:11:37.217Z,99.90
2018-11-06T01:14:07.858Z,99.90
2018-11-06T01:16:39.219Z,99.90
2018-11-06T01:19:10.373Z,99.90
2018-11-06T01:21:41.513Z,99.90
2018-11-06T01:24:11.890Z,99.90
2018-11-06T01:26:44.261Z,99.90
2018-11-06T01:29:14.648Z,99.90
2018-11-06T01:31:44.971Z,99.90
2018-11-06T01:34:15.556Z,99.90
2018-11-06T01:36:45.867Z,99.90
2018-11-06T01:39:16.191Z,99.90
2018-11-06T01:41:46.587Z,99.90
2018-11-06T01:44:16.980Z,99.90
2018-11-06T01:46:48.121Z,99.90
2018-11-06T01:49:18.517Z,99.90
2018-11-06T01:51:48.906Z,99.90
2018-11-06T01:54:19.285Z,99.90
2018-11-06T01:56:49.692Z,99.90
2018-11-06T01:59:20.018Z,99.90
2018-11-06T02:02:11.798Z,99.90
2018-11-06T02:04:42.178Z,99.90
2018-11-06T02:07:12.561Z,99.90
2018-11-06T02:09:42.954Z,99.90
2018-11-06T02:12:13.334Z,99.90
2018-11-06T02:14:50.895Z,99.90
2018-11-06T02:17:22.045Z,99.90
2018-11-06T02:19:52.441Z,99.90
2018-11-06T02:22:22.831Z,99.90
2018-11-06T02:25:12.315Z,99.90
2018-11-06T02:27:43.744Z,99.90
2018-11-06T02:30:16.184Z,99.90
2018-11-06T02:32:47.338Z,99.90
2018-11-06T02:35:17.738Z,99.90
2018-11-06T02:37:48.128Z,99.90
2018-11-06T02:40:25.831Z,99.90
2018-11-06T02:43:03.531Z,99.90
2018-11-06T02:45:40.059Z,99.90
2018-11-06T02:48:10.453Z,99.90
2018-11-06T02:50:40.848Z,99.90
2018-11-06T02:53:17.377Z,99.90
2018-11-06T02:55:48.598Z,99.90
2018-11-06T02:58:19.613Z,99.90
2018-11-06T03:00:57.151Z,99.90
2018-11-06T03:03:27.541Z,99.90
2018-11-06T03:05:57.926Z,99.90
2018-11-06T03:08:29.014Z,99.90
2018-11-06T03:10:59.444Z,99.90
2018-11-06T03:13:29.702Z,99.90
2018-11-06T03:16:00.865Z,99.90
2018-11-06T03:18:33.030Z,99.90
2018-11-06T03:21:03.418Z,99.90
2018-11-06T03:23:33.813Z,99.90
2018-11-06T03:26:23.306Z,99.90
2018-11-06T03:29:14.101Z,99.90
2018-11-06T03:32:05.921Z,99.90
2018-11-06T03:34:36.520Z,99.90
2018-11-06T03:37:06.906Z,99.90
2018-11-06T03:39:37.298Z,99.90
2018-11-06T03:42:07.629Z,99.90
2018-11-06T03:44:45.182Z,99.90
2018-11-06T03:47:16.348Z,99.90
2018-11-06T03:49:46.731Z,99.90
2018-11-06T03:52:17.043Z,99.90
2018-11-06T03:54:47.435Z,99.90
2018-11-06T03:57:17.829Z,99.90
2018-11-06T04:02:31.105Z,99.90
2018-11-06T04:05:01.493Z,99.90
2018-11-06T04:07:31.875Z,99.90
2018-11-06T04:10:21.643Z,99.90
2018-11-06T04:12:52.034Z,99.90
2018-11-06T04:15:22.421Z,99.90
2018-11-06T04:17:52.839Z,99.90
2018-11-06T04:20:25.192Z,99.90
2018-11-06T04:22:55.580Z,99.90
2018-11-06T04:25:25.973Z,99.90
2018-11-06T04:27:56.286Z,99.90
2018-11-06T04:30:34.790Z,99.90
2018-11-06T04:33:05.110Z,99.90
2018-11-06T04:35:35.429Z,99.90
2018-11-06T04:38:05.833Z,99.90
2018-11-06T04:40:36.985Z,99.90
2018-11-06T04:43:08.146Z,99.90
2018-11-06T04:45:38.475Z,99.90
2018-11-06T04:48:08.837Z,99.90
2018-11-06T04:50:39.217Z,99.90
2018-11-06T04:53:09.544Z,99.90
2018-11-06T04:55:40.953Z,99.90
2018-11-06T04:58:11.335Z,99.90
2018-11-06T05:00:41.729Z,99.90
2018-11-06T05:03:13.093Z,99.90
2018-11-06T05:05:43.408Z,99.90
2018-11-06T05:08:14.500Z,99.90
2018-11-06T05:11:05.262Z,99.90
2018-11-06T05:13:35.677Z,99.90
2018-11-06T05:16:06.762Z,99.90
2018-11-06T05:18:41.228Z,99.90
2018-11-06T05:21:11.625Z,99.90
2018-11-06T05:24:02.397Z,99.90
2018-11-06T05:26:32.777Z,99.90
2018-11-06T05:29:03.155Z,99.90
2018-11-06T05:31:33.557Z,99.90
2018-11-06T05:34:04.645Z,99.90
2018-11-06T05:36:35.039Z,99.90
2018-11-06T05:39:05.496Z,99.90
2018-11-06T05:41:35.735Z,99.90
2018-11-06T05:44:12.447Z,99.90
2018-11-06T05:46:42.653Z,99.90
2018-11-06T05:49:13.031Z,99.90
2018-11-06T05:51:43.428Z,99.90
2018-11-06T05:54:13.807Z,99.90
2018-11-06T05:56:45.223Z,99.90
2018-11-06T05:59:15.635Z,99.90
2018-11-06T06:01:46.034Z,99.90
2018-11-06T06:04:16.413Z,99.90
2018-11-06T06:06:46.814Z,99.90
2018-11-06T06:09:17.893Z,99.90
2018-11-06T06:12:07.405Z,99.90
2018-11-06T06:14:37.783Z,99.90
2018-11-06T06:17:08.227Z,99.90
2018-11-06T06:19:39.263Z,99.90
2018-11-06T06:22:09.576Z,99.90
2018-11-06T06:24:39.960Z,99.90
2018-11-06T06:27:10.293Z,99.90
2018-11-06T06:29:41.444Z,99.90
2018-11-06T06:32:12.597Z,99.90
2018-11-06T06:34:43.034Z,99.90
2018-11-06T06:37:13.373Z,99.90
2018-11-06T06:39:43.764Z,99.90
2018-11-06T06:42:14.168Z,99.90
2018-11-06T06:44:44.550Z,99.90
2018-11-06T06:47:14.956Z,99.90
2018-11-06T06:49:47.382Z,99.90
2018-11-06T06:52:17.768Z,99.90
2018-11-06T06:54:48.937Z,99.90
2018-11-06T06:57:19.339Z,99.90
2018-11-06T06:59:49.722Z,99.90
2018-11-06T07:02:20.149Z,99.90
2018-11-06T07:04:50.437Z,99.90
2018-11-06T07:07:20.825Z,99.90
2018-11-06T07:09:51.906Z,99.90
2018-11-06T07:12:26.411Z,99.90
2018-11-06T07:14:57.833Z,99.90
2018-11-06T07:17:28.997Z,99.90
2018-11-06T07:20:00.045Z,99.90
2018-11-06T07:22:30.427Z,99.90
2018-11-06T07:25:00.754Z,99.90
2018-11-06T07:27:31.152Z,99.90
2018-11-06T07:30:08.867Z,99.90
2018-11-06T07:32:39.211Z,99.90
2018-11-06T07:35:09.670Z,99.90
2018-11-06T07:37:39.970Z,99.90
2018-11-06T07:40:10.368Z,99.90
2018-11-06T07:42:40.765Z,99.90
2018-11-06T07:45:11.148Z,99.90
2018-11-06T07:47:42.513Z,99.90
2018-11-06T07:50:13.738Z,99.90
2018-11-06T07:52:44.047Z,99.90
2018-11-06T07:55:14.455Z,99.90
2018-11-06T07:57:44.837Z,99.90
2018-11-06T08:00:15.991Z,99.90
2018-11-06T08:02:46.386Z,99.90
2018-11-06T08:08:00.544Z,99.90
2018-11-06T08:10:30.923Z,99.90
2018-11-06T08:13:01.325Z,99.90
2018-11-06T08:15:31.732Z,99.90
2018-11-06T08:18:02.206Z,99.90
2018-11-06T08:20:32.604Z,99.90
2018-11-06T08:23:02.859Z,99.90
2018-11-06T08:25:33.243Z,99.90
2018-11-06T08:28:03.638Z,99.90
2018-11-06T08:30:39.247Z,99.90
2018-11-06T08:33:09.548Z,99.90
2018-11-06T08:35:39.940Z,99.90
2018-11-06T08:38:12.312Z,99.90
2018-11-06T08:40:46.800Z,99.90
2018-11-06T08:43:17.375Z,99.90
2018-11-06T08:45:48.121Z,99.90
2018-11-06T08:48:18.506Z,99.90
2018-11-06T08:50:48.766Z,99.90
2018-11-06T08:53:19.644Z,99.90
2018-11-06T08:55:50.798Z,99.90
2018-11-06T08:58:21.179Z,99.90
2018-11-06T09:00:51.593Z,99.90
2018-11-06T09:03:21.989Z,99.90
2018-11-06T09:05:52.375Z,99.90
2018-11-06T09:08:22.722Z,99.90
2018-11-06T09:10:53.873Z,99.90
2018-11-06T09:13:24.276Z,99.90
2018-11-06T09:15:55.452Z,99.90
2018-11-06T09:18:25.844Z,99.90
2018-11-06T09:20:56.246Z,99.90
2018-11-06T09:23:26.646Z,99.90
2018-11-06T09:26:02.088Z,99.90
2018-11-06T09:28:34.143Z,99.90
2018-11-06T09:31:04.621Z,99.90
2018-11-06T09:33:34.845Z,99.90
2018-11-06T09:36:05.254Z,99.90
2018-11-06T09:38:37.711Z,99.90
2018-11-06T09:41:08.130Z,99.90
2018-11-06T09:43:39.436Z,99.90
2018-11-06T09:46:09.828Z,99.90
2018-11-06T09:48:59.595Z,99.90
2018-11-06T09:51:29.976Z,99.90
2018-11-06T09:54:01.316Z,99.90
2018-11-06T09:56:31.663Z,99.90
2018-11-06T09:59:02.816Z,99.90
2018-11-06T10:01:33.213Z,99.90
2018-11-06T10:04:03.989Z,99.90
2018-11-06T10:06:34.560Z,99.90
2018-11-06T10:09:05.815Z,99.90
2018-11-06T10:11:36.182Z,99.90
2018-11-06T10:14:06.510Z,99.90
2018-11-06T10:16:36.888Z,99.90
2018-11-06T10:19:07.291Z,99.90
2018-11-06T10:21:37.686Z,99.90
2018-11-06T10:24:08.078Z,99.90
2018-11-06T10:26:39.502Z,99.90
2018-11-06T10:29:09.825Z,99.90
2018-11-06T10:31:47.546Z,99.90
2018-11-06T10:34:17.925Z,99.90
2018-11-06T10:36:48.329Z,99.90
2018-11-06T10:39:19.502Z,99.90
2018-11-06T10:41:49.895Z,99.90
2018-11-06T10:44:20.981Z,99.90
2018-11-06T10:46:54.805Z,99.90
2018-11-06T10:49:26.155Z,99.90
2018-11-06T10:51:56.612Z,99.90
2018-11-06T10:54:27.272Z,99.90
2018-11-06T10:56:57.839Z,99.90
2018-11-06T10:59:28.241Z,99.90
2018-11-06T11:02:16.804Z,99.90
2018-11-06T11:04:47.210Z,99.90
2018-11-06T11:07:17.609Z,99.90
2018-11-06T11:09:47.951Z,99.90
2018-11-06T11:12:19.106Z,99.90
2018-11-06T11:14:49.490Z,99.90
2018-11-06T11:17:20.539Z,99.90
2018-11-06T11:19:50.945Z,99.90
2018-11-06T11:22:21.348Z,99.90
2018-11-06T11:24:54.212Z,99.90
2018-11-06T11:27:24.598Z,99.90
2018-11-06T11:29:54.997Z,99.90
2018-11-06T11:32:25.341Z,99.50
2018-11-06T11:34:55.664Z,99.60
2018-11-06T11:37:26.057Z,99.10
2018-11-06T11:39:56.784Z,99.40
2018-11-06T11:42:27.168Z,97.70
2018-11-06T11:44:57.561Z,97.10
2018-11-06T11:47:35.298Z,97.30
2018-11-06T11:50:05.682Z,96.70
2018-11-06T11:52:40.171Z,96.70
2018-11-06T11:55:11.353Z,95.20
2018-11-06T11:57:49.055Z,95.20
2018-11-06T12:00:25.644Z,95.00
2018-11-06T12:02:56.043Z,94.30
2018-11-06T12:05:26.417Z,94.10
2018-11-06T12:07:56.824Z,93.70
2018-11-06T12:10:27.226Z,94.70
2018-11-06T12:12:57.616Z,94.20
2018-11-06T12:15:28.805Z,94.20
2018-11-06T12:20:43.390Z,94.00
2018-11-06T12:23:20.931Z,94.40
2018-11-06T12:25:52.367Z,95.30
2018-11-06T12:28:22.511Z,95.20
2018-11-06T12:30:52.834Z,95.20
2018-11-06T12:33:24.022Z,94.60
2018-11-06T12:36:01.580Z,94.60
2018-11-06T12:38:31.974Z,94.10
2018-11-06T12:41:02.383Z,93.30
2018-11-06T12:43:32.865Z,93.80
2018-11-06T12:46:03.186Z,93.60
2018-11-06T12:48:33.573Z,93.50
2018-11-06T12:51:04.918Z,92.70
2018-11-06T12:53:35.687Z,92.20
2018-11-06T12:56:06.148Z,92.00
2018-11-06T12:58:36.487Z,92.30
2018-11-06T13:01:06.827Z,92.50
2018-11-06T13:03:37.214Z,91.70
2018-11-06T13:06:07.595Z,92.40
2018-11-06T13:08:38.324Z,91.90
2018-11-06T13:11:08.711Z,92.70
2018-11-06T13:13:39.114Z,93.40
2018-11-06T13:16:10.774Z,94.10
2018-11-06T13:18:41.980Z,94.30
2018-11-06T13:21:13.396Z,94.30
2018-11-06T13:23:45.832Z,94.70
2018-11-06T13:26:17.145Z,94.50
2018-11-06T13:28:47.375Z,94.50
2018-11-06T13:31:17.779Z,95.30
2018-11-06T13:33:50.225Z,94.70
2018-11-06T13:36:20.610Z,94.90
2018-11-06T13:38:50.947Z,94.70
2018-11-06T13:41:21.327Z,94.70
2018-11-06T13:43:56.083Z,94.70
2018-11-06T13:46:27.232Z,94.90
2018-11-06T13:48:57.632Z,95.30
2018-11-06T13:51:32.453Z,95.70
2018-11-06T13:54:06.951Z,96.50
2018-11-06T13:56:37.346Z,98.30
2018-11-06T13:59:07.733Z,99.70
2018-11-06T14:01:40.162Z,99.90
2018-11-06T14:04:11.626Z,99.90
2018-11-06T14:06:41.951Z,99.90
2018-11-06T14:09:12.269Z,99.90
2018-11-06T14:11:42.660Z,99.90
2018-11-06T14:14:15.094Z,99.90
2018-11-06T14:16:45.492Z,99.90
2018-11-06T14:19:16.674Z,99.90
2018-11-06T14:21:46.985Z,99.90
2018-11-06T14:24:17.306Z,99.90
2018-11-06T14:26:47.646Z,99.90
2018-11-06T14:29:18.039Z,99.90
2018-11-06T14:31:49.126Z,99.90
2018-11-06T14:34:21.584Z,99.90
2018-11-06T14:36:52.165Z,99.90
2018-11-06T14:39:22.549Z,99.90
2018-11-06T14:41:53.983Z,99.90
2018-11-06T14:44:24.382Z,99.90
2018-11-06T14:46:54.770Z,99.90
2018-11-06T14:49:45.567Z,99.90
2018-11-06T14:52:23.110Z,99.90
2018-11-06T14:54:53.514Z,99.90
2018-11-06T14:57:23.912Z,99.70
2018-11-06T14:59:55.356Z,99.80
2018-11-06T15:02:26.805Z,99.90
2018-11-06T15:04:57.207Z,99.90
2018-11-06T15:07:29.580Z,99.90
2018-11-06T15:09:59.983Z,99.90
2018-11-06T15:12:30.425Z,99.90
2018-11-06T15:15:00.810Z,99.90
2018-11-06T15:17:32.256Z,99.90
2018-11-06T15:20:02.646Z,99.90
2018-11-06T15:22:33.808Z,99.90
2018-11-06T15:25:04.559Z,99.90
2018-11-06T15:27:34.882Z,99.90
2018-11-06T15:30:11.357Z,99.90
2018-11-06T15:33:01.893Z,99.80
2018-11-06T15:35:32.324Z,99.80
2018-11-06T15:38:03.493Z,99.70
2018-11-06T15:40:33.885Z,99.60
2018-11-06T15:43:04.487Z,99.50
2018-11-06T15:48:39.893Z,99.60
2018-11-06T15:51:10.172Z,99.60
2018-11-06T15:53:42.609Z,99.90
2018-11-06T15:56:13.024Z,99.90
2018-11-06T15:58:44.192Z,99.90
2018-11-06T16:01:14.589Z,99.90
2018-11-06T16:03:45.771Z,99.90
2018-11-06T16:06:16.156Z,99.90
2018-11-06T16:08:46.552Z,99.90
2018-11-06T16:11:16.954Z,99.90
2018-11-06T16:13:47.335Z,99.90
2018-11-06T16:16:17.715Z,99.90
2018-11-06T16:18:56.134Z,99.90
2018-11-06T16:21:26.464Z,99.90
2018-11-06T16:24:04.733Z,99.90
2018-11-06T16:26:35.094Z,99.90
2018-11-06T16:29:10.550Z,99.90
2018-11-06T16:32:00.295Z,99.90
2018-11-06T16:34:30.679Z,99.90
2018-11-06T16:37:03.876Z,99.90
2018-11-06T16:39:34.187Z,99.90
2018-11-06T16:42:04.870Z,99.90
2018-11-06T16:44:35.245Z,99.90
2018-11-06T16:47:05.579Z,99.90
2018-11-06T16:49:35.980Z,99.90
2018-11-06T16:52:13.675Z,99.90
2018-11-06T16:55:04.240Z,99.90
2018-11-06T16:57:35.338Z,99.90
2018-11-06T17:00:08.509Z,99.90
2018-11-06T17:02:38.785Z,99.90
2018-11-06T17:05:09.100Z,99.90
2018-11-06T17:07:45.228Z,99.90
2018-11-06T17:10:24.872Z,99.90
2018-11-06T17:13:01.367Z,99.90
2018-11-06T17:15:31.756Z,99.90
2018-11-06T17:18:05.161Z,99.90
2018-11-06T17:20:42.107Z,99.90
2018-11-06T17:23:12.505Z,99.90
2018-11-06T17:25:46.223Z,99.90
2018-11-06T17:28:17.299Z,99.90
2018-11-06T17:30:47.674Z,99.90
2018-11-06T17:33:18.046Z,99.90
2018-11-06T17:35:48.470Z,99.90
2018-11-06T17:38:18.851Z,99.90
2018-11-06T17:40:49.241Z,99.90
2018-11-06T17:43:24.493Z,99.90
2018-11-06T17:45:55.919Z,99.90
2018-11-06T17:48:26.332Z,99.90
2018-11-06T17:50:59.584Z,99.90
2018-11-06T17:53:29.984Z,99.90
2018-11-06T17:56:22.165Z,99.90
2018-11-06T17:58:52.565Z,99.90
2018-11-06T18:01:22.960Z,99.90
2018-11-06T18:03:53.946Z,99.90
2018-11-06T18:06:32.417Z,99.90
2018-11-06T18:09:05.622Z,99.90
2018-11-06T18:11:45.248Z,99.90
2018-11-06T18:14:15.665Z,99.90
2018-11-06T18:16:51.528Z,99.90
2018-11-06T18:19:27.557Z,99.90
2018-11-06T18:22:05.550Z,99.90
2018-11-06T18:24:35.965Z,99.90
2018-11-06T18:30:09.963Z,99.90
2018-11-06T18:32:40.345Z,99.90
2018-11-06T18:35:10.742Z,99.90
2018-11-06T18:37:41.535Z,99.90
2018-11-06T18:40:17.511Z,99.90
2018-11-06T18:42:47.920Z,99.90
2018-11-06T18:45:21.075Z,99.90
2018-11-06T18:47:51.669Z,99.90
2018-11-06T18:50:22.045Z,99.90
2018-11-06T18:52:55.308Z,99.90
2018-11-06T18:55:25.642Z,99.90
2018-11-06T18:57:56.079Z,99.90
2018-11-06T19:00:27.445Z,99.90
2018-11-06T19:02:58.624Z,99.90
2018-11-06T19:05:28.945Z,99.90
2018-11-06T19:08:02.270Z,99.90
2018-11-06T19:10:36.223Z,99.90
2018-11-06T19:13:08.608Z,99.90
2018-11-06T19:15:38.996Z,99.90
2018-11-06T19:18:09.338Z,99.90
2018-11-06T19:20:39.722Z,99.90
2018-11-06T19:23:12.162Z,99.90
2018-11-06T19:25:42.560Z,99.90
2018-11-06T19:28:12.934Z,99.90
2018-11-06T19:30:43.325Z,99.90
2018-11-06T19:33:14.487Z,99.90
2018-11-06T19:35:44.865Z,99.90
2018-11-06T19:38:15.444Z,99.90
2018-11-06T19:40:45.781Z,99.90
2018-11-06T19:43:16.353Z,99.90
2018-11-06T19:45:46.750Z,99.90
2018-11-06T19:48:17.162Z,99.90
2018-11-06T19:50:53.037Z,99.90
2018-11-06T19:53:26.264Z,99.90
2018-11-06T19:55:56.588Z,99.90
2018-11-06T19:58:26.985Z,99.90
2018-11-06T20:01:07.355Z,99.90
2018-11-06T20:03:45.619Z,99.90
2018-11-06T20:06:22.091Z,99.90
2018-11-06T20:08:53.241Z,99.90
2018-11-06T20:11:27.291Z,99.90
2018-11-06T20:14:00.753Z,99.90
2018-11-06T20:16:31.896Z,99.90
2018-11-06T20:19:02.290Z,99.90
2018-11-06T20:21:49.012Z,99.90
2018-11-06T20:24:21.227Z,99.90
2018-11-06T20:26:57.593Z,99.90
2018-11-06T20:29:36.909Z,99.90
2018-11-06T20:32:08.036Z,99.90
2018-11-06T20:34:39.131Z,99.90
2018-11-06T20:37:29.321Z,99.90
2018-11-06T20:39:59.630Z,99.90
2018-11-06T20:42:37.320Z,99.90
2018-11-06T20:45:07.622Z,99.90
2018-11-06T20:47:38.011Z,99.90
2018-11-06T20:50:10.902Z,99.90
2018-11-06T20:52:41.313Z,99.90
2018-11-06T20:55:36.646Z,99.90
2018-11-06T20:58:06.937Z,99.90
2018-11-06T21:00:53.680Z,99.90
2018-11-06T21:03:26.610Z,99.90
2018-11-06T21:05:57.145Z,99.90
2018-11-06T21:08:27.642Z,99.90
2018-11-06T21:13:41.918Z,99.90
2018-11-06T21:16:34.364Z,99.90
2018-11-06T21:19:10.366Z,99.90
2018-11-06T21:21:40.754Z,99.90
2018-11-06T21:24:11.155Z,99.90
2018-11-06T21:26:44.177Z,99.90
2018-11-06T21:29:17.223Z,99.90
2018-11-06T21:31:47.542Z,99.90
2018-11-06T21:34:23.838Z,99.90
2018-11-06T21:36:54.926Z,99.90
2018-11-06T21:39:31.463Z,99.90
2018-11-06T21:42:08.316Z,99.90
2018-11-06T21:44:38.487Z,99.90
2018-11-06T21:47:18.580Z,99.90
2018-11-06T21:49:48.985Z,99.90
2018-11-06T21:52:19.367Z,99.90
2018-11-06T21:54:50.496Z,99.90
2018-11-06T21:57:24.885Z,99.90
2018-11-06T21:59:55.254Z,99.90
2018-11-06T22:02:26.390Z,99.90
2018-11-06T22:04:57.545Z,99.90
2018-11-06T22:07:30.764Z,99.90
2018-11-06T22:10:01.137Z,99.90
2018-11-06T22:12:31.561Z,99.90
2018-11-06T22:15:01.916Z,99.90
2018-11-06T22:17:35.691Z,99.90
2018-11-06T22:20:06.096Z,99.90
2018-11-06T22:22:38.191Z,99.90
2018-11-06T22:25:08.514Z,99.90
2018-11-06T22:27:38.917Z,99.90
2018-11-06T22:30:10.003Z,99.90
2018-11-06T22:32:40.398Z,99.90
2018-11-06T22:35:10.795Z,99.90
2018-11-06T22:37:48.131Z,99.90
2018-11-06T22:40:39.915Z,99.90
2018-11-06T22:43:10.299Z,99.90
2018-11-06T22:45:40.690Z,99.90
2018-11-06T22:48:11.084Z,99.90
2018-11-06T22:50:43.507Z,99.90
2018-11-06T22:53:13.910Z,99.90
2018-11-06T22:55:44.303Z,99.90
2018-11-06T22:58:14.928Z,99.90
2018-11-06T23:00:45.305Z,99.90
2018-11-06T23:03:15.639Z,99.90
2018-11-06T23:05:46.055Z,99.90
2018-11-06T23:08:16.337Z,99.90
2018-11-06T23:10:46.751Z,99.90
2018-11-06T23:13:17.829Z,99.90
2018-11-06T23:16:07.265Z,99.90
2018-11-06T23:18:38.425Z,99.90
2018-11-06T23:21:08.797Z,99.90
2018-11-06T23:23:39.201Z,99.90
2018-11-06T23:26:15.723Z,99.90
2018-11-06T23:28:47.240Z,99.90
2018-11-06T23:31:17.618Z,99.90
2018-11-06T23:33:47.991Z,99.90
2018-11-06T23:36:18.398Z,99.90
2018-11-06T23:38:51.858Z,99.90
2018-11-06T23:41:23.008Z,99.90
2018-11-06T23:43:54.182Z,99.90
2018-11-06T23:46:24.560Z,99.90
2018-11-06T23:48:54.948Z,99.90
2018-11-06T23:51:44.645Z,99.90
2018-11-06T23:54:15.041Z,99.90
2018-11-06T23:56:45.434Z,99.90
2018-11-06T23:59:15.836Z,99.90
